• Join FlightAware (Why Join?)
  • Login
  • US Flag 
01:36PM EDT


 

Airport Tracker/Info


-or-


 

Live Flight TrackerFlight Track Log ✈ UCA3598 ✈ 15-Sep-2013 ✈ KIAD - KBGM

Flight Track Log - Related Links

Times and Time Zones

All times are in EDT time to prevent confusion due to time zone crossing. See the UCA3598 flight status page for this flight to view local times or setup timezone preferences in your user account.

Time Position Orientation Groundspeed Altitude Reporting Facility
EDT Latitude Longitude Course Direction KTS MPH feet Rate Location/Type
10:25PM 38.9667 -77.5000 311° West 142 163 1,700  Level Potomac TRACON
10:26PM 39.0000 -77.5500 311° West 178 205 2,800 1,380 Climbing Potomac TRACON
10:27PM 39.0500 -77.5333 15° North 195 224 4,400 1,500 Climbing Potomac TRACON
10:29PM 39.1564 -77.5294 North 197 227 7,500 1,440 Climbing Washington Center
10:30PM 39.2086 -77.5228 North 197 227 8,800 1,260 Climbing Washington Center
10:31PM 39.2650 -77.5136 North 197 227 10,100 1,260 Climbing Washington Center
10:32PM 39.3214 -77.5044 North 202 232 11,400 1,200 Climbing Washington Center
10:33PM 39.3797 -77.4953 North 202 232 12,600 1,140 Climbing Washington Center
10:34PM 39.4383 -77.4861 North 202 232 13,700 1,140 Climbing Washington Center
10:35PM 39.4947 -77.4767 North 202 232 15,000 900 Climbing Washington Center
10:38PM 39.6442 -77.4253 15° North 222 255 17,000 780 Climbing New York Center
10:39PM 39.7044 -77.3958 21° North 227 261 17,800 660 Climbing New York Center
10:40PM 39.7664 -77.3667 20° North 235 270 18,400 600 Climbing New York Center
10:41PM 39.8286 -77.3372 20° North 235 270 19,000 300 Climbing New York Center
10:42PM 39.8972 -77.3031 21° North 250 288 19,000  Level New York Center
10:43PM 39.9700 -77.2692 20° North 259 298 19,000  Level New York Center
10:44PM 40.0431 -77.2300 22° Northeast 278 320 19,000  Level New York Center
10:45PM 40.1181 -77.1936 20° North 283 326 19,000  Level New York Center
10:46PM 40.1950 -77.1544 21° North 283 326 19,000  Level New York Center
10:47PM 40.2700 -77.1178 20° North 283 326 19,000  Level New York Center
10:48PM 40.3344 -77.0828 22° Northeast 283 326 19,000  Level New York Center
10:49PM 40.4200 -77.0442 19° North 283 326 19,000  Level New York Center
10:50PM 40.4864 -77.0094 22° Northeast 278 320 19,000  Level New York Center
10:51PM 40.5700 -76.9678 21° North 283 326 19,000  Level New York Center
10:52PM 40.6383 -76.9328 21° North 283 326 19,000 -300 Level New York Center
10:53PM 40.7219 -76.8911 21° North 283 326 18,400 -900 Descending New York Center
10:54PM 40.7947 -76.8536 21° North 297 342 17,200 -1,440 Descending New York Center
10:55PM 40.8867 -76.8069 21° North 309 356 15,600 -1,500 Descending New York Center
10:56PM 40.9594 -76.7667 23° Northeast 314 361 14,200 -1,320 Descending New York Center
10:57PM 41.0408 -76.7244 21° North 314 361 13,000 -660 Descending New York Center
10:58PM 41.1178 -76.6869 20° North 308 354 12,900 -60 Descending New York Center
10:59PM 41.1994 -76.6389 24° Northeast 295 339 12,900  Level New York Center
11:00PM 41.2742 -76.6014 21° North 287 330 12,900  Level New York Center
11:01PM 41.3425 -76.5658 21° North 282 325 12,900  Level New York Center
11:02PM 41.4172 -76.5281 21° North 282 325 12,900  Level New York Center
11:03PM 41.4983 -76.4850 22° Northeast 277 319 12,900 -60 Level New York Center
11:04PM 41.5731 -76.4472 21° North 277 319 12,800 -660 Descending New York Center
11:05PM 41.6522 -76.4067 21° North 288 331 11,600 -1,140 Descending New York Center
11:06PM 41.7214 -76.3542 30° Northeast 303 349 10,600 -1,140 Descending New York Center
11:07PM 41.7925 -76.3017 29° Northeast 303 349 9,400 -1,320 Descending New York Center
11:08PM 41.8636 -76.2489 29° Northeast 271 312 8,000 -1,620 Descending New York Center
11:09PM 41.9306 -76.1961 30° Northeast 271 312 6,200 -1,740 Descending New York Center
11:10PM 41.9933 -76.1425 32° Northeast 271 312 4,600 -1,140 Descending New York Center
11:11PM 42.0378 -76.0847 44° Northeast 247 284 4,000 -360 Descending New York Center
11:12PM 42.0883 -76.0217 43° Northeast 233 268 3,900 -540 Descending New York Center
11:13PM 42.1197 -75.9739 48° Northeast 200 230 3,000 -660 Descending New York Center
11:14PM 42.1461 -75.9369 46° Northeast 164 189 2,600 -420 Descending New York Center
11:15PM 42.1767 -75.9503 342° North 108 124 2,200 -300 Descending New York Center
11:16PM 42.2022 -75.9411 15° North 108 124 2,100 3,360 Descending New York Center
11:17PM 42.2272 -75.9375 North 108 124 9,000 3,420 Climbing New York Center
11:18PM 42.2547 -75.9314 North 108 124 9,000  Level New York Center